createdAt,value
2019-02-06T00:00:01.197Z,16
2019-02-06T00:01:01.097Z,15
2019-02-06T00:02:01.100Z,17
2019-02-06T00:03:01.094Z,15
2019-02-06T00:04:01.096Z,16
2019-02-06T00:05:01.123Z,18
2019-02-06T00:06:01.096Z,17
2019-02-06T00:07:01.104Z,18
2019-02-06T00:08:01.095Z,21
2019-02-06T00:09:01.100Z,20
2019-02-06T00:12:01.123Z,19
2019-02-06T00:14:01.078Z,17
2019-02-06T00:15:01.115Z,16
2019-02-06T00:16:01.135Z,15
2019-02-06T00:17:01.079Z,17
2019-02-06T00:18:01.085Z,16
2019-02-06T00:19:01.144Z,15
2019-02-06T00:20:01.080Z,14
2019-02-06T00:22:01.109Z,13
2019-02-06T00:25:01.080Z,14
2019-02-06T00:26:01.109Z,13
2019-02-06T00:27:01.081Z,12
2019-02-06T00:28:01.153Z,14
2019-02-06T00:29:01.083Z,15
2019-02-06T00:30:01.096Z,16
2019-02-06T00:31:01.110Z,17
2019-02-06T00:32:01.083Z,18
2019-02-06T00:33:01.086Z,16
2019-02-06T00:34:02.160Z,14
2019-02-06T00:35:01.085Z,15
2019-02-06T00:36:01.111Z,17
2019-02-06T00:37:01.083Z,16
2019-02-06T00:39:01.084Z,17
2019-02-06T00:40:01.087Z,16
2019-02-06T00:41:01.113Z,13
2019-02-06T00:42:01.088Z,14
2019-02-06T00:43:01.088Z,13
2019-02-06T00:44:01.086Z,14
2019-02-06T00:45:01.094Z,15
2019-02-06T00:46:01.115Z,17
2019-02-06T00:47:01.091Z,18
2019-02-06T00:50:01.085Z,19
2019-02-06T00:51:01.115Z,17
2019-02-06T00:52:01.086Z,16
2019-02-06T00:53:01.084Z,17
2019-02-06T00:54:01.092Z,18
2019-02-06T00:55:02.000Z,19
2019-02-06T00:59:01.110Z,17
2019-02-06T01:00:01.087Z,17
2019-02-06T01:01:01.118Z,18
2019-02-06T01:02:01.089Z,17
2019-02-06T01:03:01.083Z,18
2019-02-06T01:04:01.086Z,16
2019-02-06T01:05:01.086Z,15
2019-02-06T01:07:01.109Z,16
2019-02-06T01:08:01.082Z,15
2019-02-06T01:09:01.083Z,17
2019-02-06T01:12:01.113Z,16
2019-02-06T01:13:01.086Z,15
2019-02-06T01:15:01.084Z,14
2019-02-06T01:18:01.119Z,16
2019-02-06T01:19:01.089Z,17
2019-02-06T01:21:01.086Z,18
2019-02-06T01:24:01.084Z,17
2019-02-06T01:25:01.086Z,18
2019-02-06T01:26:01.085Z,17
2019-02-06T01:28:01.086Z,18
2019-02-06T01:30:01.093Z,19
2019-02-06T01:31:01.091Z,18
2019-02-06T01:32:01.085Z,17
2019-02-06T01:33:01.085Z,15
2019-02-06T01:35:01.090Z,13
2019-02-06T01:37:01.085Z,15
2019-02-06T01:40:01.094Z,16
2019-02-06T01:42:01.085Z,15
2019-02-06T01:43:02.531Z,16
2019-02-06T01:45:06.107Z,15
2019-02-06T01:48:01.085Z,14
2019-02-06T01:49:01.138Z,15
2019-02-06T01:50:01.086Z,16
2019-02-06T01:51:01.087Z,17
2019-02-06T01:52:01.086Z,16
2019-02-06T01:53:01.083Z,19
2019-02-06T01:57:01.115Z,21
2019-02-06T01:58:01.086Z,18
2019-02-06T01:59:01.083Z,19
2019-02-06T02:00:01.090Z,18
2019-02-06T02:02:01.119Z,17
2019-02-06T02:04:02.188Z,16
2019-02-06T02:06:02.583Z,17
2019-02-06T02:09:01.110Z,16
2019-02-06T02:11:01.083Z,18
2019-02-06T02:12:01.086Z,16
2019-02-06T02:13:01.099Z,18
2019-02-06T02:14:01.109Z,19
2019-02-06T02:15:01.084Z,18
2019-02-06T02:16:01.081Z,16
2019-02-06T02:19:01.113Z,15
2019-02-06T02:20:01.081Z,16
2019-02-06T02:21:01.082Z,18
2019-02-06T02:22:01.087Z,17
2019-02-06T02:24:01.108Z,19
2019-02-06T02:26:01.091Z,17
2019-02-06T02:27:01.089Z,18
2019-02-06T02:28:01.108Z,17
2019-02-06T02:29:01.082Z,15
2019-02-06T02:30:01.082Z,15
2019-02-06T02:31:01.082Z,16
2019-02-06T02:32:01.096Z,14
2019-02-06T02:35:01.112Z,13
2019-02-06T02:36:01.087Z,12
2019-02-06T02:38:01.117Z,14
2019-02-06T02:40:01.099Z,17
2019-02-06T02:41:01.092Z,16
2019-02-06T02:42:01.086Z,17
2019-02-06T02:43:01.109Z,15
2019-02-06T02:44:01.087Z,16
2019-02-06T02:45:01.082Z,15
2019-02-06T02:46:01.082Z,17
2019-02-06T02:49:01.109Z,16
2019-02-06T02:50:01.097Z,17
2019-02-06T02:51:01.982Z,15
2019-02-06T02:53:01.109Z,16
2019-02-06T02:54:01.087Z,17
2019-02-06T02:55:01.093Z,15
2019-02-06T02:56:01.081Z,16
2019-02-06T02:57:01.108Z,17
2019-02-06T02:58:01.079Z,18
2019-02-06T03:00:01.083Z,20
2019-02-06T03:01:01.079Z,19
2019-02-06T03:02:01.107Z,17
2019-02-06T03:03:01.080Z,15
2019-02-06T03:05:01.085Z,14
2019-02-06T03:10:01.126Z,13
2019-02-06T03:11:01.090Z,15
2019-02-06T03:12:02.345Z,16
2019-02-06T03:13:01.089Z,17
2019-02-06T03:14:01.086Z,18
2019-02-06T03:15:01.209Z,18
2019-02-06T03:16:01.088Z,16
2019-02-06T03:18:01.087Z,13
2019-02-06T03:20:01.124Z,14
2019-02-06T03:21:01.089Z,16
2019-02-06T03:22:01.089Z,17
2019-02-06T03:23:01.092Z,18
2019-02-06T03:25:01.088Z,16
2019-02-06T03:28:01.122Z,17
2019-02-06T03:29:01.096Z,16
2019-02-06T03:30:01.092Z,16
2019-02-06T03:31:01.093Z,13
2019-02-06T03:33:02.100Z,12
2019-02-06T03:34:01.095Z,13
2019-02-06T03:35:01.105Z,15
2019-02-06T03:37:01.090Z,14
2019-02-06T03:39:01.115Z,13
2019-02-06T03:40:01.091Z,14
2019-02-06T03:41:01.118Z,15
2019-02-06T03:42:01.095Z,16
2019-02-06T03:43:01.093Z,18
2019-02-06T03:44:01.095Z,20
2019-02-06T03:45:01.111Z,18
2019-02-06T03:47:01.118Z,17
2019-02-06T03:48:01.096Z,16
2019-02-06T03:49:01.093Z,13
2019-02-06T03:50:01.091Z,14
2019-02-06T03:51:01.123Z,17
2019-02-06T03:54:03.255Z,18
2019-02-06T03:55:01.154Z,19
2019-02-06T03:56:01.118Z,17
2019-02-06T03:57:01.095Z,15
2019-02-06T03:58:01.093Z,16
2019-02-06T03:59:01.094Z,17
2019-02-06T04:00:01.097Z,16
2019-02-06T04:05:01.119Z,15
2019-02-06T04:07:01.264Z,17
2019-02-06T04:08:01.096Z,18
2019-02-06T04:09:01.093Z,19
2019-02-06T04:11:01.100Z,20
2019-02-06T04:12:01.127Z,19
2019-02-06T04:13:01.098Z,18
2019-02-06T04:14:01.093Z,17
2019-02-06T04:15:01.921Z,18
2019-02-06T04:16:01.095Z,16
2019-02-06T04:17:01.129Z,14
2019-02-06T04:20:01.123Z,12
2019-02-06T04:21:01.098Z,14
2019-02-06T04:22:01.125Z,16
2019-02-06T04:23:01.091Z,15
2019-02-06T04:25:01.094Z,16
2019-02-06T04:26:01.096Z,15
2019-02-06T04:28:01.117Z,16
2019-02-06T04:29:01.102Z,18
2019-02-06T04:30:01.094Z,17
2019-02-06T04:31:01.096Z,19
2019-02-06T04:33:01.127Z,18
2019-02-06T04:35:01.103Z,17
2019-02-06T04:36:01.100Z,16
2019-02-06T04:37:06.416Z,17
2019-02-06T04:39:01.129Z,16
2019-02-06T04:40:01.097Z,17
2019-02-06T04:41:01.093Z,16
2019-02-06T04:42:01.103Z,15
2019-02-06T04:43:01.093Z,16
2019-02-06T04:44:01.125Z,14
2019-02-06T04:45:01.094Z,12
2019-02-06T04:46:01.103Z,14
2019-02-06T04:49:01.133Z,15
2019-02-06T04:50:01.113Z,17
2019-02-06T04:51:01.093Z,18
2019-02-06T04:52:01.130Z,19
2019-02-06T04:54:01.105Z,18
2019-02-06T04:56:01.095Z,17
2019-02-06T04:57:01.117Z,15
2019-02-06T04:58:01.096Z,16
2019-02-06T04:59:01.092Z,18
2019-02-06T05:00:01.093Z,19
2019-02-06T05:01:01.095Z,17
2019-02-06T05:02:01.117Z,19
2019-02-06T05:03:01.157Z,18
2019-02-06T05:04:01.096Z,17
2019-02-06T05:06:01.097Z,18
2019-02-06T05:08:01.126Z,16
2019-02-06T05:09:01.092Z,14
2019-02-06T05:12:01.093Z,12
2019-02-06T05:13:01.127Z,14
2019-02-06T05:14:01.091Z,15
2019-02-06T05:15:01.093Z,16
2019-02-06T05:17:02.122Z,18
2019-02-06T05:18:01.127Z,17
2019-02-06T05:20:01.098Z,16
2019-02-06T05:21:01.093Z,17
2019-02-06T05:24:01.141Z,18
2019-02-06T05:25:01.094Z,17
2019-02-06T05:26:01.103Z,15
2019-02-06T05:27:01.094Z,14
2019-02-06T05:30:01.095Z,15
2019-02-06T05:32:02.065Z,16
2019-02-06T05:33:01.100Z,15
2019-02-06T05:34:01.094Z,14
2019-02-06T05:35:01.121Z,15
2019-02-06T05:40:02.107Z,16
2019-02-06T05:41:01.084Z,18
2019-02-06T05:44:01.078Z,17
2019-02-06T05:45:01.081Z,17
2019-02-06T05:46:01.080Z,16
2019-02-06T05:49:01.085Z,17
2019-02-06T05:50:01.115Z,16
2019-02-06T05:51:01.079Z,14
2019-02-06T05:52:02.554Z,15
2019-02-06T05:53:01.164Z,14
2019-02-06T05:54:01.081Z,16
2019-02-06T05:55:04.340Z,15
2019-02-06T05:56:01.104Z,18
2019-02-06T05:57:01.082Z,17
2019-02-06T05:59:01.156Z,15
2019-02-06T06:00:01.248Z,15
2019-02-06T06:01:01.119Z,14
2019-02-06T06:02:01.085Z,13
2019-02-06T06:03:01.082Z,14
2019-02-06T06:04:01.087Z,15
2019-02-06T06:05:01.083Z,16
2019-02-06T06:06:01.089Z,17
2019-02-06T06:11:01.083Z,16
2019-02-06T06:12:01.087Z,17
2019-02-06T06:13:01.103Z,16
2019-02-06T06:14:01.124Z,17
2019-02-06T06:15:01.085Z,17
2019-02-06T06:16:01.086Z,16
2019-02-06T06:18:01.087Z,17
2019-02-06T06:20:01.091Z,18
2019-02-06T06:21:01.084Z,19
2019-02-06T06:23:01.090Z,20
2019-02-06T06:26:01.088Z,19
2019-02-06T06:27:01.084Z,18
2019-02-06T06:28:01.247Z,17
2019-02-06T06:30:01.086Z,15
2019-02-06T06:31:01.447Z,16
2019-02-06T06:34:01.110Z,15
2019-02-06T06:35:01.088Z,16
2019-02-06T06:36:01.090Z,15
2019-02-06T06:37:01.093Z,14
2019-02-06T06:38:01.688Z,15
2019-02-06T06:41:02.063Z,16
2019-02-06T06:42:01.088Z,17
2019-02-06T06:44:01.172Z,16
2019-02-06T06:45:01.086Z,17
2019-02-06T06:47:01.087Z,18
2019-02-06T06:49:01.087Z,20
2019-02-06T06:50:01.103Z,18
2019-02-06T06:51:01.087Z,17
2019-02-06T06:54:01.088Z,15
2019-02-06T06:56:01.089Z,18
2019-02-06T07:00:01.089Z,18
2019-02-06T07:01:01.088Z,14
2019-02-06T07:03:02.192Z,13
2019-02-06T07:04:01.088Z,14
2019-02-06T07:05:01.087Z,16
2019-02-06T07:06:01.092Z,18
2019-02-06T07:08:09.024Z,17
2019-02-06T07:09:01.093Z,16
2019-02-06T07:10:01.091Z,15
2019-02-06T07:14:01.094Z,16
2019-02-06T07:15:01.094Z,17
2019-02-06T07:17:01.088Z,18
2019-02-06T07:18:01.663Z,19
2019-02-06T07:19:01.086Z,18
2019-02-06T07:21:01.720Z,17
2019-02-06T07:22:01.210Z,16
2019-02-06T07:24:01.089Z,17
2019-02-06T07:25:01.091Z,15
2019-02-06T07:27:01.086Z,16
2019-02-06T07:28:01.085Z,17
2019-02-06T07:30:01.090Z,17
2019-02-06T07:31:01.085Z,16
2019-02-06T07:32:01.086Z,19
2019-02-06T07:33:01.094Z,18
2019-02-06T07:34:01.088Z,16
2019-02-06T07:35:01.087Z,17
2019-02-06T07:36:01.085Z,20
2019-02-06T07:37:01.086Z,16
2019-02-06T07:38:01.087Z,15
2019-02-06T07:39:01.087Z,17
2019-02-06T07:41:01.089Z,15
2019-02-06T07:42:06.127Z,17
2019-02-06T07:44:01.196Z,18
2019-02-06T07:45:01.091Z,17
2019-02-06T07:46:01.091Z,18
2019-02-06T07:47:01.091Z,17
2019-02-06T07:48:01.117Z,15
2019-02-06T07:50:01.981Z,14
2019-02-06T07:51:01.088Z,12
2019-02-06T07:52:01.083Z,13
2019-02-06T07:53:01.086Z,15
2019-02-06T07:55:01.099Z,16
2019-02-06T07:57:01.089Z,17
2019-02-06T07:58:01.109Z,16
2019-02-06T08:00:01.156Z,18
2019-02-06T08:01:02.119Z,17
2019-02-06T08:02:01.089Z,16
2019-02-06T08:05:01.109Z,14
2019-02-06T08:06:01.091Z,15
2019-02-06T08:07:01.090Z,16
2019-02-06T08:09:01.084Z,17
2019-02-06T08:10:01.087Z,18
2019-02-06T08:13:01.114Z,19
2019-02-06T08:14:01.083Z,16
2019-02-06T08:15:01.113Z,17
2019-02-06T08:16:01.084Z,16
2019-02-06T08:19:01.131Z,17
2019-02-06T08:20:01.085Z,15
2019-02-06T08:21:01.083Z,16
2019-02-06T08:22:01.093Z,15
2019-02-06T08:24:01.085Z,14
2019-02-06T08:25:01.083Z,16
2019-02-06T08:26:01.085Z,15
2019-02-06T08:27:02.149Z,16
2019-02-06T08:30:01.084Z,14
2019-02-06T08:33:01.086Z,15
2019-02-06T08:34:01.112Z,17
2019-02-06T08:35:01.081Z,18
2019-02-06T08:37:01.081Z,17
2019-02-06T08:38:01.089Z,19
2019-02-06T08:40:01.608Z,17
2019-02-06T08:41:01.543Z,19
2019-02-06T08:43:01.099Z,17
2019-02-06T08:45:01.102Z,18
2019-02-06T08:46:01.081Z,16
2019-02-06T08:48:01.080Z,14
2019-02-06T08:49:01.083Z,16
2019-02-06T08:52:01.078Z,15
2019-02-06T08:53:01.078Z,16
2019-02-06T08:54:01.079Z,15
2019-02-06T08:56:01.078Z,16
2019-02-06T08:58:01.080Z,17
2019-02-06T08:59:01.076Z,16
2019-02-06T09:00:01.193Z,16
2019-02-06T09:02:01.080Z,15
2019-02-06T09:03:01.080Z,14
2019-02-06T09:04:01.077Z,16
2019-02-06T09:05:01.079Z,15
2019-02-06T09:06:02.148Z,16
2019-02-06T09:08:01.079Z,17
2019-02-06T09:09:01.079Z,15
2019-02-06T09:12:01.084Z,16
2019-02-06T09:13:01.086Z,15
2019-02-06T09:14:01.081Z,14
2019-02-06T09:15:01.082Z,15
2019-02-06T09:17:01.083Z,14
2019-02-06T09:18:01.082Z,15
2019-02-06T09:19:01.094Z,16
2019-02-06T09:20:01.084Z,15
2019-02-06T09:23:01.086Z,14
2019-02-06T09:24:01.082Z,15
2019-02-06T09:25:01.888Z,18
2019-02-06T09:26:01.086Z,19
2019-02-06T09:29:01.082Z,18
2019-02-06T09:30:01.084Z,17
2019-02-06T09:32:01.086Z,16
2019-02-06T09:33:01.092Z,15
2019-02-06T09:34:01.090Z,16
2019-02-06T09:36:01.085Z,17
2019-02-06T09:38:01.087Z,16
2019-02-06T09:40:01.092Z,15
2019-02-06T09:43:01.086Z,16
2019-02-06T09:44:01.088Z,15
2019-02-06T09:45:01.092Z,15
2019-02-06T09:47:01.123Z,16
2019-02-06T09:48:01.093Z,17
2019-02-06T09:50:01.088Z,16
2019-02-06T09:53:01.089Z,15
2019-02-06T09:55:01.130Z,17
2019-02-06T09:57:01.097Z,16
2019-02-06T09:58:01.109Z,18
2019-02-06T10:00:01.098Z,18
2019-02-06T10:01:01.097Z,20
2019-02-06T10:03:01.108Z,18
2019-02-06T10:05:01.089Z,16
2019-02-06T10:06:01.857Z,14
2019-02-06T10:07:01.088Z,15
2019-02-06T10:08:01.088Z,16
2019-02-06T10:09:01.114Z,17
2019-02-06T10:10:01.089Z,18
2019-02-06T10:11:01.094Z,20
2019-02-06T10:13:01.091Z,19
2019-02-06T10:15:01.088Z,19
2019-02-06T10:16:01.091Z,17
2019-02-06T10:17:01.093Z,15
2019-02-06T10:18:01.088Z,17
2019-02-06T10:19:01.115Z,16
2019-02-06T10:22:01.087Z,18
2019-02-06T10:23:01.096Z,16
2019-02-06T10:27:01.087Z,14
2019-02-06T10:30:03.827Z,15
2019-02-06T10:32:01.089Z,14
2019-02-06T10:33:02.187Z,16
2019-02-06T10:35:01.085Z,15
2019-02-06T10:36:01.118Z,14
2019-02-06T10:37:01.084Z,15
2019-02-06T10:41:01.132Z,14
2019-02-06T10:42:01.084Z,16
2019-02-06T10:45:01.088Z,17
2019-02-06T10:46:01.084Z,18
2019-02-06T10:47:01.088Z,15
2019-02-06T10:48:06.091Z,17
2019-02-06T10:49:01.087Z,16
2019-02-06T10:50:01.093Z,17
2019-02-06T10:51:01.086Z,20
2019-02-06T10:53:01.087Z,18
2019-02-06T10:54:01.111Z,19
2019-02-06T10:55:01.086Z,18
2019-02-06T10:56:01.087Z,16
2019-02-06T10:57:01.084Z,17
2019-02-06T11:00:01.108Z,17
2019-02-06T11:02:01.084Z,19
2019-02-06T11:03:01.124Z,18
2019-02-06T11:04:01.084Z,16
2019-02-06T11:06:01.087Z,17
2019-02-06T11:08:01.084Z,16
2019-02-06T11:09:01.085Z,17
2019-02-06T11:10:01.085Z,18
2019-02-06T11:11:01.084Z,16
2019-02-06T11:13:02.068Z,18
2019-02-06T11:15:01.088Z,18
2019-02-06T11:16:01.093Z,20
2019-02-06T11:17:01.099Z,19
2019-02-06T11:20:01.086Z,17
2019-02-06T11:21:01.085Z,16
2019-02-06T11:22:01.086Z,18
2019-02-06T11:23:01.112Z,17
2019-02-06T11:24:01.087Z,19
2019-02-06T11:25:01.087Z,20
2019-02-06T11:26:01.091Z,21
2019-02-06T11:27:01.087Z,19
2019-02-06T11:28:01.114Z,18
2019-02-06T11:29:01.209Z,16
2019-02-06T11:30:01.086Z,16
2019-02-06T11:32:01.088Z,18
2019-02-06T11:35:02.391Z,17
2019-02-06T11:36:01.086Z,16
2019-02-06T11:37:01.087Z,14
2019-02-06T11:38:01.086Z,15
2019-02-06T11:41:01.092Z,16
2019-02-06T11:44:01.088Z,17
2019-02-06T11:45:01.088Z,17
2019-02-06T11:46:01.086Z,18
2019-02-06T11:49:01.091Z,17
2019-02-06T11:50:01.093Z,19
2019-02-06T11:52:01.113Z,17
2019-02-06T11:54:01.088Z,18
2019-02-06T11:55:01.130Z,16
2019-02-06T11:56:01.100Z,17
2019-02-06T11:57:01.128Z,21
2019-02-06T12:00:06.092Z,21
2019-02-06T12:02:01.089Z,20
2019-02-06T12:03:01.092Z,18
2019-02-06T12:04:01.090Z,17
2019-02-06T12:05:01.097Z,19
2019-02-06T12:06:01.094Z,17
2019-02-06T12:07:01.128Z,16
2019-02-06T12:08:01.092Z,18
2019-02-06T12:09:01.094Z,19
2019-02-06T12:10:09.221Z,17
2019-02-06T12:13:01.094Z,15
2019-02-06T12:15:01.104Z,17
2019-02-06T12:16:01.098Z,18
2019-02-06T12:17:06.098Z,19
2019-02-06T12:18:01.095Z,20
2019-02-06T12:20:01.097Z,19
2019-02-06T12:21:01.124Z,18
2019-02-06T12:24:01.100Z,17
2019-02-06T12:25:01.102Z,19
2019-02-06T12:26:06.099Z,20
2019-02-06T12:30:01.082Z,20
2019-02-06T12:31:01.106Z,19
2019-02-06T12:32:01.082Z,18
2019-02-06T12:33:01.082Z,20
2019-02-06T12:34:01.083Z,17
2019-02-06T12:35:01.082Z,18
2019-02-06T12:36:01.118Z,19
2019-02-06T12:37:01.083Z,18
2019-02-06T12:38:01.086Z,17
2019-02-06T12:40:01.080Z,15
2019-02-06T12:42:01.096Z,16
2019-02-06T12:43:01.084Z,14
2019-02-06T12:45:01.082Z,16
2019-02-06T12:46:01.110Z,14
2019-02-06T12:47:01.215Z,12
2019-02-06T12:48:01.082Z,16
2019-02-06T12:49:01.085Z,15
2019-02-06T12:51:01.115Z,16
2019-02-06T12:52:02.118Z,17
2019-02-06T12:53:01.085Z,15
2019-02-06T12:54:01.082Z,16
2019-02-06T12:55:01.084Z,18
2019-02-06T12:58:01.089Z,16
2019-02-06T12:59:01.083Z,17
2019-02-06T13:00:01.086Z,14
2019-02-06T13:01:01.083Z,13
2019-02-06T13:02:01.084Z,14
2019-02-06T13:04:01.089Z,15
2019-02-06T13:05:01.094Z,14
2019-02-06T13:06:01.085Z,15
2019-02-06T13:07:01.119Z,14
2019-02-06T13:08:01.087Z,15
2019-02-06T13:09:01.089Z,16
2019-02-06T13:10:01.086Z,18
2019-02-06T13:11:01.086Z,19
2019-02-06T13:13:01.086Z,20
2019-02-06T13:14:01.089Z,18
2019-02-06T13:15:01.107Z,17
2019-02-06T13:17:01.085Z,16
2019-02-06T13:18:01.256Z,15
2019-02-06T13:19:01.087Z,16
2019-02-06T13:20:01.088Z,15
2019-02-06T13:21:01.085Z,17
2019-02-06T13:24:01.084Z,18
2019-02-06T13:25:01.114Z,19
2019-02-06T13:26:01.088Z,18
2019-02-06T13:27:01.085Z,16
2019-02-06T13:30:01.088Z,16
2019-02-06T13:31:01.086Z,17
2019-02-06T13:32:01.086Z,18
2019-02-06T13:33:01.093Z,19
2019-02-06T13:34:01.114Z,18
2019-02-06T13:36:02.112Z,19
2019-02-06T13:37:01.087Z,21
2019-02-06T13:39:01.113Z,22
2019-02-06T13:41:01.088Z,20
2019-02-06T13:42:05.280Z,19
2019-02-06T13:44:01.113Z,18
2019-02-06T13:45:01.088Z,18
2019-02-06T13:46:01.088Z,19
2019-02-06T13:47:01.090Z,18
2019-02-06T13:50:01.113Z,17
2019-02-06T13:51:01.093Z,16
2019-02-06T13:52:01.090Z,17
2019-02-06T13:55:01.093Z,18
2019-02-06T13:56:01.101Z,19
2019-02-06T13:59:01.095Z,18
2019-02-06T14:00:01.210Z,19
2019-02-06T14:01:01.095Z,16
2019-02-06T14:02:01.091Z,18
2019-02-06T14:03:02.144Z,17
2019-02-06T14:05:01.091Z,16
2019-02-06T14:06:01.092Z,18
2019-02-06T14:07:01.091Z,17
2019-02-06T14:08:01.092Z,18
2019-02-06T14:09:01.097Z,19
2019-02-06T14:10:01.091Z,21
2019-02-06T14:11:01.222Z,20
2019-02-06T14:12:01.093Z,19
2019-02-06T14:14:01.094Z,18
2019-02-06T14:15:01.096Z,16
2019-02-06T14:18:01.091Z,15
2019-02-06T14:20:01.564Z,16
2019-02-06T14:21:01.116Z,17
2019-02-06T14:22:01.095Z,16
2019-02-06T14:23:01.092Z,15
2019-02-06T14:24:01.092Z,14
2019-02-06T14:26:01.096Z,13
2019-02-06T14:27:01.105Z,14
2019-02-06T14:28:01.096Z,15
2019-02-06T14:29:01.236Z,14
2019-02-06T14:30:01.095Z,15
2019-02-06T14:31:01.196Z,16
2019-02-06T14:34:01.098Z,17
2019-02-06T14:36:01.094Z,18
2019-02-06T14:38:01.096Z,16
2019-02-06T14:39:01.093Z,18
2019-02-06T14:40:01.127Z,17
2019-02-06T14:41:08.115Z,19
2019-02-06T14:44:01.091Z,20
2019-02-06T14:45:06.101Z,23
2019-02-06T14:46:01.124Z,20
2019-02-06T14:49:01.092Z,18
2019-02-06T14:50:01.091Z,15
2019-02-06T14:53:02.587Z,16
2019-02-06T14:57:01.094Z,17
2019-02-06T14:58:01.099Z,16
2019-02-06T14:59:01.094Z,19
2019-02-06T15:00:01.099Z,18
2019-02-06T15:02:01.092Z,17
2019-02-06T15:03:01.131Z,18
2019-02-06T15:04:01.095Z,17
2019-02-06T15:06:02.545Z,16
2019-02-06T15:09:01.098Z,17
2019-02-06T15:10:01.093Z,18
2019-02-06T15:11:02.110Z,19
2019-02-06T15:13:01.127Z,18
2019-02-06T15:14:01.095Z,17
2019-02-06T15:15:01.103Z,17
2019-02-06T15:16:01.092Z,15
2019-02-06T15:17:01.092Z,17
2019-02-06T15:18:06.100Z,19
2019-02-06T15:19:01.093Z,18
2019-02-06T15:20:01.096Z,17
2019-02-06T15:21:01.103Z,18
2019-02-06T15:22:01.098Z,16
2019-02-06T15:23:06.097Z,14
2019-02-06T15:24:01.189Z,16
2019-02-06T15:25:01.095Z,17
2019-02-06T15:26:01.102Z,16
2019-02-06T15:28:01.136Z,17
2019-02-06T15:30:01.094Z,16
2019-02-06T15:31:01.099Z,17
2019-02-06T15:38:01.128Z,16
2019-02-06T15:39:01.100Z,15
2019-02-06T15:40:01.095Z,17
2019-02-06T15:41:01.096Z,19
2019-02-06T15:44:01.095Z,20
2019-02-06T15:45:01.095Z,18
2019-02-06T15:46:01.096Z,17
2019-02-06T15:47:01.098Z,18
2019-02-06T15:48:01.124Z,19
2019-02-06T15:49:01.108Z,18
2019-02-06T15:50:01.097Z,19
2019-02-06T15:51:03.461Z,18
2019-02-06T15:53:02.247Z,20
2019-02-06T15:54:01.097Z,19
2019-02-06T15:55:01.123Z,17
2019-02-06T15:56:01.121Z,18
2019-02-06T15:57:01.103Z,17
2019-02-06T15:58:01.100Z,16
2019-02-06T16:00:01.097Z,17
2019-02-06T16:01:01.123Z,15
2019-02-06T16:02:01.099Z,16
2019-02-06T16:04:01.165Z,14
2019-02-06T16:06:01.129Z,17
2019-02-06T16:07:01.099Z,15
2019-02-06T16:08:01.206Z,13
2019-02-06T16:09:01.217Z,16
2019-02-06T16:10:01.098Z,17
2019-02-06T16:11:01.131Z,15
2019-02-06T16:13:01.082Z,16
2019-02-06T16:14:01.083Z,18
2019-02-06T16:15:01.083Z,17
2019-02-06T16:16:01.117Z,18
2019-02-06T16:17:01.084Z,19
2019-02-06T16:18:02.201Z,18
2019-02-06T16:19:01.081Z,17
2019-02-06T16:21:01.086Z,16
2019-02-06T16:23:01.089Z,17
2019-02-06T16:24:01.083Z,18
2019-02-06T16:26:01.084Z,19
2019-02-06T16:27:01.115Z,18
2019-02-06T16:28:01.084Z,16
2019-02-06T16:30:01.095Z,15
2019-02-06T16:32:01.084Z,16
2019-02-06T16:33:01.082Z,17
2019-02-06T16:34:01.081Z,15
2019-02-06T16:35:01.083Z,16
2019-02-06T16:36:01.083Z,15
2019-02-06T16:38:01.082Z,17
2019-02-06T16:39:02.145Z,18
2019-02-06T16:40:01.080Z,17
2019-02-06T16:41:01.081Z,16
2019-02-06T16:43:01.081Z,14
2019-02-06T16:44:01.086Z,15
2019-02-06T16:45:01.082Z,15
2019-02-06T16:46:01.099Z,16
2019-02-06T16:48:01.083Z,15
2019-02-06T16:49:01.082Z,14
2019-02-06T16:52:01.354Z,13
2019-02-06T16:53:01.666Z,16
2019-02-06T16:57:01.082Z,17
2019-02-06T16:58:01.116Z,16
2019-02-06T16:59:01.087Z,15
2019-02-06T17:00:01.091Z,16
2019-02-06T17:01:01.096Z,17
2019-02-06T17:02:01.088Z,15
2019-02-06T17:08:01.083Z,18
2019-02-06T17:10:01.085Z,17
2019-02-06T17:11:01.086Z,18
2019-02-06T17:12:04.244Z,19
2019-02-06T17:13:01.083Z,17
2019-02-06T17:14:01.115Z,18
2019-02-06T17:15:01.087Z,19
2019-02-06T17:16:01.088Z,18
2019-02-06T17:18:01.088Z,19
2019-02-06T17:19:01.087Z,18
2019-02-06T17:20:01.127Z,17
2019-02-06T17:21:01.091Z,18
2019-02-06T17:22:01.088Z,17
2019-02-06T17:23:01.090Z,18
2019-02-06T17:25:01.226Z,20
2019-02-06T17:26:01.087Z,19
2019-02-06T17:28:02.033Z,18
2019-02-06T17:29:01.459Z,17
2019-02-06T17:30:01.093Z,16
2019-02-06T17:31:01.088Z,17
2019-02-06T17:32:01.088Z,18
2019-02-06T17:33:01.090Z,19
2019-02-06T17:34:01.089Z,20
2019-02-06T17:35:01.090Z,19
2019-02-06T17:36:01.126Z,16
2019-02-06T17:37:01.094Z,15
2019-02-06T17:39:01.093Z,14
2019-02-06T17:41:01.123Z,18
2019-02-06T17:43:01.171Z,16
2019-02-06T17:44:01.091Z,17
2019-02-06T17:45:01.093Z,16
2019-02-06T17:46:01.089Z,15
2019-02-06T17:48:01.108Z,17
2019-02-06T17:50:01.088Z,18
2019-02-06T17:51:01.090Z,17
2019-02-06T17:52:01.125Z,16
2019-02-06T17:55:01.090Z,15
2019-02-06T17:56:01.090Z,16
2019-02-06T17:57:01.088Z,17
2019-02-06T17:58:01.127Z,16
2019-02-06T17:59:01.087Z,15
2019-02-06T18:00:01.119Z,15
2019-02-06T18:04:01.090Z,18
2019-02-06T18:05:01.139Z,16
2019-02-06T18:07:03.295Z,17
2019-02-06T18:08:01.088Z,19
2019-02-06T18:09:01.092Z,17
2019-02-06T18:11:01.096Z,16
2019-02-06T18:12:01.090Z,15
2019-02-06T18:13:01.090Z,14
2019-02-06T18:15:01.090Z,16
2019-02-06T18:16:01.090Z,15
2019-02-06T18:17:01.096Z,16
2019-02-06T18:18:01.090Z,18
2019-02-06T18:19:01.090Z,16
2019-02-06T18:24:01.089Z,18
2019-02-06T18:25:11.108Z,17
2019-02-06T18:26:01.095Z,19
2019-02-06T18:28:01.867Z,17
2019-02-06T18:30:01.091Z,19
2019-02-06T18:31:01.091Z,18
2019-02-06T18:32:01.094Z,17
2019-02-06T18:33:01.094Z,18
2019-02-06T18:35:03.142Z,17
2019-02-06T18:36:01.106Z,16
2019-02-06T18:38:01.091Z,15
2019-02-06T18:39:01.095Z,16
2019-02-06T18:40:03.067Z,15
2019-02-06T18:41:01.157Z,16
2019-02-06T18:42:01.090Z,17
2019-02-06T18:43:01.091Z,18
2019-02-06T18:45:01.107Z,18
2019-02-06T18:47:01.117Z,17
2019-02-06T18:49:01.092Z,16
2019-02-06T18:51:01.089Z,17
2019-02-06T18:52:01.090Z,16
2019-02-06T18:53:01.222Z,17
2019-02-06T18:55:01.115Z,16
2019-02-06T19:00:01.096Z,15
2019-02-06T19:02:01.112Z,16
2019-02-06T19:03:01.381Z,15
2019-02-06T19:04:01.123Z,16
2019-02-06T19:05:01.161Z,18
2019-02-06T19:06:01.096Z,19
2019-02-06T19:07:01.133Z,17
2019-02-06T19:10:01.152Z,16
2019-02-06T19:11:01.172Z,15
2019-02-06T19:13:01.095Z,16
2019-02-06T19:14:01.093Z,17
2019-02-06T19:15:01.136Z,17
2019-02-06T19:16:01.090Z,18
2019-02-06T19:18:01.092Z,17
2019-02-06T19:19:01.093Z,18
2019-02-06T19:20:01.125Z,16
2019-02-06T19:22:01.158Z,15
2019-02-06T19:24:01.091Z,13
2019-02-06T19:25:01.126Z,14
2019-02-06T19:29:01.096Z,15
2019-02-06T19:30:01.130Z,15
2019-02-06T19:31:01.094Z,13
2019-02-06T19:35:01.129Z,14
2019-02-06T19:36:01.093Z,16
2019-02-06T19:37:01.094Z,17
2019-02-06T19:39:02.119Z,16
2019-02-06T19:41:01.128Z,15
2019-02-06T19:42:01.094Z,16
2019-02-06T19:43:02.575Z,17
2019-02-06T19:44:01.095Z,18
2019-02-06T19:45:01.105Z,17
2019-02-06T19:46:01.128Z,19
2019-02-06T19:50:01.099Z,18
2019-02-06T19:51:01.129Z,17
2019-02-06T19:52:01.219Z,15
2019-02-06T19:53:01.097Z,14
2019-02-06T19:55:01.098Z,15
2019-02-06T19:56:01.125Z,17
2019-02-06T19:58:01.081Z,18
2019-02-06T19:59:01.082Z,19
2019-02-06T20:00:01.090Z,20
2019-02-06T20:02:01.107Z,19
2019-02-06T20:03:01.081Z,17
2019-02-06T20:04:01.086Z,19
2019-02-06T20:05:01.087Z,17
2019-02-06T20:06:01.110Z,18
2019-02-06T20:07:01.083Z,17
2019-02-06T20:08:01.083Z,19
2019-02-06T20:09:01.087Z,17
2019-02-06T20:10:01.089Z,16
2019-02-06T20:11:01.116Z,15
2019-02-06T20:12:01.083Z,16
2019-02-06T20:13:10.462Z,17
2019-02-06T20:14:01.087Z,18
2019-02-06T20:15:01.083Z,17
2019-02-06T20:17:01.111Z,16
2019-02-06T20:18:01.083Z,14
2019-02-06T20:19:01.086Z,15
2019-02-06T20:20:01.085Z,17
2019-02-06T20:21:01.083Z,18
2019-02-06T20:22:01.109Z,19
2019-02-06T20:23:01.082Z,20
2019-02-06T20:24:01.087Z,18
2019-02-06T20:27:01.123Z,17
2019-02-06T20:28:01.082Z,16
2019-02-06T20:29:01.083Z,17
2019-02-06T20:30:01.086Z,17
2019-02-06T20:31:01.084Z,16